sensor_id;sensor_type;location;lat;lon;timestamp;P1;durP1;ratioP1;P2;durP2;ratioP2
72198;SDS011;60103;51.014;16.992;2022-10-29T00:00:55;12.70;;;5.70;;
72198;SDS011;60103;51.014;16.992;2022-10-29T00:03:23;16.00;;;5.80;;
72198;SDS011;60103;51.014;16.992;2022-10-29T00:05:59;13.50;;;5.70;;
72198;SDS011;60103;51.014;16.992;2022-10-29T00:08:31;13.30;;;5.40;;
72198;SDS011;60103;51.014;16.992;2022-10-29T00:11:06;14.60;;;6.00;;
72198;SDS011;60103;51.014;16.992;2022-10-29T00:13:41;13.60;;;5.70;;
72198;SDS011;60103;51.014;16.992;2022-10-29T00:16:13;11.70;;;5.10;;
72198;SDS011;60103;51.014;16.992;2022-10-29T00:18:43;14.90;;;6.20;;
72198;SDS011;60103;51.014;16.992;2022-10-29T00:21:12;15.30;;;6.50;;
72198;SDS011;60103;51.014;16.992;2022-10-29T00:23:40;12.70;;;5.60;;
72198;SDS011;60103;51.014;16.992;2022-10-29T00:26:07;14.40;;;6.20;;
72198;SDS011;60103;51.014;16.992;2022-10-29T00:28:35;16.00;;;5.80;;
72198;SDS011;60103;51.014;16.992;2022-10-29T00:31:03;14.70;;;5.80;;
72198;SDS011;60103;51.014;16.992;2022-10-29T00:33:32;15.20;;;6.50;;
72198;SDS011;60103;51.014;16.992;2022-10-29T00:36:33;13.90;;;5.90;;
72198;SDS011;60103;51.014;16.992;2022-10-29T00:38:54;14.20;;;5.40;;
72198;SDS011;60103;51.014;16.992;2022-10-29T00:41:26;13.70;;;5.20;;
72198;SDS011;60103;51.014;16.992;2022-10-29T00:46:42;12.80;;;5.30;;
72198;SDS011;60103;51.014;16.992;2022-10-29T00:49:11;15.70;;;6.00;;
72198;SDS011;60103;51.014;16.992;2022-10-29T00:51:40;13.00;;;5.50;;
72198;SDS011;60103;51.014;16.992;2022-10-29T00:54:07;14.60;;;5.30;;
72198;SDS011;60103;51.014;16.992;2022-10-29T00:56:37;14.10;;;5.60;;
72198;SDS011;60103;51.014;16.992;2022-10-29T00:59:07;12.30;;;4.80;;
72198;SDS011;60103;51.014;16.992;2022-10-29T01:01:35;12.70;;;4.70;;
72198;SDS011;60103;51.014;16.992;2022-10-29T01:04:04;11.90;;;4.50;;
72198;SDS011;60103;51.014;16.992;2022-10-29T01:06:31;13.00;;;5.70;;
72198;SDS011;60103;51.014;16.992;2022-10-29T01:08:59;13.40;;;5.40;;
72198;SDS011;60103;51.014;16.992;2022-10-29T01:16:51;12.90;;;5.30;;
72198;SDS011;60103;51.014;16.992;2022-10-29T01:22:15;13.20;;;5.70;;
72198;SDS011;60103;51.014;16.992;2022-10-29T01:25:06;12.90;;;5.40;;
72198;SDS011;60103;51.014;16.992;2022-10-29T01:30:34;12.30;;;5.20;;
72198;SDS011;60103;51.014;16.992;2022-10-29T01:36:28;12.80;;;4.80;;
72198;SDS011;60103;51.014;16.992;2022-10-29T01:39:10;11.80;;;4.70;;
72198;SDS011;60103;51.014;16.992;2022-10-29T01:47:11;10.80;;;5.00;;
72198;SDS011;60103;51.014;16.992;2022-10-29T01:49:45;12.10;;;4.70;;
72198;SDS011;60103;51.014;16.992;2022-10-29T01:52:15;13.20;;;4.90;;
72198;SDS011;60103;51.014;16.992;2022-10-29T01:54:45;12.30;;;5.10;;
72198;SDS011;60103;51.014;16.992;2022-10-29T02:00:03;12.40;;;4.90;;
72198;SDS011;60103;51.014;16.992;2022-10-29T02:02:59;11.30;;;4.80;;
72198;SDS011;60103;51.014;16.992;2022-10-29T02:05:38;10.40;;;4.40;;
72198;SDS011;60103;51.014;16.992;2022-10-29T02:13:45;11.70;;;4.20;;
72198;SDS011;60103;51.014;16.992;2022-10-29T02:16:19;8.60;;;3.80;;
72198;SDS011;60103;51.014;16.992;2022-10-29T02:18:47;13.10;;;4.10;;
72198;SDS011;60103;51.014;16.992;2022-10-29T02:21:18;13.60;;;4.50;;
72198;SDS011;60103;51.014;16.992;2022-10-29T02:23:46;12.30;;;4.40;;
72198;SDS011;60103;51.014;16.992;2022-10-29T02:26:13;11.30;;;4.20;;
72198;SDS011;60103;51.014;16.992;2022-10-29T02:28:42;12.10;;;4.30;;
72198;SDS011;60103;51.014;16.992;2022-10-29T02:31:09;16.40;;;4.30;;
72198;SDS011;60103;51.014;16.992;2022-10-29T02:33:36;10.60;;;3.90;;
72198;SDS011;60103;51.014;16.992;2022-10-29T02:36:04;11.50;;;3.60;;
72198;SDS011;60103;51.014;16.992;2022-10-29T02:38:32;9.70;;;3.40;;
72198;SDS011;60103;51.014;16.992;2022-10-29T02:40:59;8.30;;;3.00;;
72198;SDS011;60103;51.014;16.992;2022-10-29T02:43:27;10.10;;;3.40;;
72198;SDS011;60103;51.014;16.992;2022-10-29T02:46:15;12.90;;;3.90;;
72198;SDS011;60103;51.014;16.992;2022-10-29T02:48:42;9.00;;;3.60;;
72198;SDS011;60103;51.014;16.992;2022-10-29T02:51:11;10.20;;;3.70;;
72198;SDS011;60103;51.014;16.992;2022-10-29T02:53:38;10.80;;;3.80;;
72198;SDS011;60103;51.014;16.992;2022-10-29T02:56:06;10.70;;;3.70;;
72198;SDS011;60103;51.014;16.992;2022-10-29T02:58:34;11.60;;;3.60;;
72198;SDS011;60103;51.014;16.992;2022-10-29T03:01:02;12.30;;;3.40;;
72198;SDS011;60103;51.014;16.992;2022-10-29T03:03:30;12.50;;;4.00;;
72198;SDS011;60103;51.014;16.992;2022-10-29T03:05:58;13.80;;;3.90;;
72198;SDS011;60103;51.014;16.992;2022-10-29T03:08:25;9.10;;;3.00;;
72198;SDS011;60103;51.014;16.992;2022-10-29T03:10:53;12.80;;;3.40;;
72198;SDS011;60103;51.014;16.992;2022-10-29T03:13:21;10.80;;;3.60;;
72198;SDS011;60103;51.014;16.992;2022-10-29T03:15:48;11.60;;;3.50;;
72198;SDS011;60103;51.014;16.992;2022-10-29T03:18:15;10.40;;;3.40;;
72198;SDS011;60103;51.014;16.992;2022-10-29T03:20:43;10.50;;;3.50;;
72198;SDS011;60103;51.014;16.992;2022-10-29T03:23:11;12.00;;;3.10;;
72198;SDS011;60103;51.014;16.992;2022-10-29T03:25:38;9.40;;;3.50;;
72198;SDS011;60103;51.014;16.992;2022-10-29T03:28:05;10.20;;;3.50;;
72198;SDS011;60103;51.014;16.992;2022-10-29T03:30:33;10.50;;;3.40;;
72198;SDS011;60103;51.014;16.992;2022-10-29T03:33:02;9.20;;;3.00;;
72198;SDS011;60103;51.014;16.992;2022-10-29T03:35:29;8.90;;;3.20;;
72198;SDS011;60103;51.014;16.992;2022-10-29T03:37:56;9.80;;;2.90;;
72198;SDS011;60103;51.014;16.992;2022-10-29T03:40:24;10.80;;;3.40;;
72198;SDS011;60103;51.014;16.992;2022-10-29T03:42:51;9.60;;;2.90;;
72198;SDS011;60103;51.014;16.992;2022-10-29T03:45:19;11.30;;;3.10;;
72198;SDS011;60103;51.014;16.992;2022-10-29T03:47:47;10.90;;;3.00;;
72198;SDS011;60103;51.014;16.992;2022-10-29T03:50:16;12.50;;;3.00;;
72198;SDS011;60103;51.014;16.992;2022-10-29T03:52:43;7.50;;;2.80;;
72198;SDS011;60103;51.014;16.992;2022-10-29T03:55:10;10.00;;;2.80;;
72198;SDS011;60103;51.014;16.992;2022-10-29T03:57:38;8.90;;;3.10;;
72198;SDS011;60103;51.014;16.992;2022-10-29T04:00:05;8.30;;;2.80;;
72198;SDS011;60103;51.014;16.992;2022-10-29T04:02:39;10.10;;;3.40;;
72198;SDS011;60103;51.014;16.992;2022-10-29T04:05:07;10.10;;;3.60;;
72198;SDS011;60103;51.014;16.992;2022-10-29T04:07:35;11.80;;;3.20;;
72198;SDS011;60103;51.014;16.992;2022-10-29T04:10:02;11.30;;;3.60;;
72198;SDS011;60103;51.014;16.992;2022-10-29T04:12:30;9.10;;;3.00;;
72198;SDS011;60103;51.014;16.992;2022-10-29T04:14:58;9.10;;;3.00;;
72198;SDS011;60103;51.014;16.992;2022-10-29T04:17:25;11.40;;;2.70;;
72198;SDS011;60103;51.014;16.992;2022-10-29T04:19:52;8.80;;;3.00;;
72198;SDS011;60103;51.014;16.992;2022-10-29T04:22:20;11.50;;;2.70;;
72198;SDS011;60103;51.014;16.992;2022-10-29T04:25:07;9.80;;;3.10;;
72198;SDS011;60103;51.014;16.992;2022-10-29T04:27:55;9.80;;;3.20;;
72198;SDS011;60103;51.014;16.992;2022-10-29T04:30:43;11.80;;;3.80;;
72198;SDS011;60103;51.014;16.992;2022-10-29T04:33:10;10.30;;;3.40;;
72198;SDS011;60103;51.014;16.992;2022-10-29T04:35:38;13.30;;;3.70;;
72198;SDS011;60103;51.014;16.992;2022-10-29T04:38:09;11.30;;;3.80;;
72198;SDS011;60103;51.014;16.992;2022-10-29T04:40:37;10.90;;;3.60;;
72198;SDS011;60103;51.014;16.992;2022-10-29T04:43:04;10.00;;;4.00;;
72198;SDS011;60103;51.014;16.992;2022-10-29T04:45:33;11.00;;;3.70;;
72198;SDS011;60103;51.014;16.992;2022-10-29T04:48:01;11.00;;;3.80;;
72198;SDS011;60103;51.014;16.992;2022-10-29T04:50:30;11.70;;;3.60;;
72198;SDS011;60103;51.014;16.992;2022-10-29T04:52:58;9.70;;;3.70;;
72198;SDS011;60103;51.014;16.992;2022-10-29T04:55:27;10.90;;;3.80;;
72198;SDS011;60103;51.014;16.992;2022-10-29T04:57:56;11.20;;;4.40;;
72198;SDS011;60103;51.014;16.992;2022-10-29T05:00:24;15.10;;;5.20;;
72198;SDS011;60103;51.014;16.992;2022-10-29T05:02:51;13.50;;;4.30;;
72198;SDS011;60103;51.014;16.992;2022-10-29T05:05:20;13.00;;;4.20;;
72198;SDS011;60103;51.014;16.992;2022-10-29T05:07:47;12.60;;;4.80;;
72198;SDS011;60103;51.014;16.992;2022-10-29T05:10:15;13.50;;;4.20;;
72198;SDS011;60103;51.014;16.992;2022-10-29T05:12:42;10.80;;;3.70;;
72198;SDS011;60103;51.014;16.992;2022-10-29T05:15:09;12.10;;;4.50;;
72198;SDS011;60103;51.014;16.992;2022-10-29T05:17:36;9.80;;;3.30;;
72198;SDS011;60103;51.014;16.992;2022-10-29T05:20:04;12.90;;;4.30;;
72198;SDS011;60103;51.014;16.992;2022-10-29T05:22:32;9.40;;;3.20;;
72198;SDS011;60103;51.014;16.992;2022-10-29T05:24:59;12.30;;;4.20;;
72198;SDS011;60103;51.014;16.992;2022-10-29T05:27:26;10.30;;;3.40;;
72198;SDS011;60103;51.014;16.992;2022-10-29T05:29:54;9.60;;;3.50;;
72198;SDS011;60103;51.014;16.992;2022-10-29T05:32:21;11.70;;;3.40;;
72198;SDS011;60103;51.014;16.992;2022-10-29T05:34:49;13.60;;;4.10;;
72198;SDS011;60103;51.014;16.992;2022-10-29T05:37:16;10.00;;;3.40;;
72198;SDS011;60103;51.014;16.992;2022-10-29T05:39:43;13.90;;;4.40;;
72198;SDS011;60103;51.014;16.992;2022-10-29T05:42:10;10.60;;;3.40;;
72198;SDS011;60103;51.014;16.992;2022-10-29T05:44:37;11.50;;;3.80;;
72198;SDS011;60103;51.014;16.992;2022-10-29T05:47:05;12.30;;;3.90;;
72198;SDS011;60103;51.014;16.992;2022-10-29T05:49:33;14.00;;;3.40;;
72198;SDS011;60103;51.014;16.992;2022-10-29T05:52:00;12.70;;;4.10;;
72198;SDS011;60103;51.014;16.992;2022-10-29T05:54:27;11.50;;;3.70;;
72198;SDS011;60103;51.014;16.992;2022-10-29T05:56:56;12.20;;;3.90;;
72198;SDS011;60103;51.014;16.992;2022-10-29T05:59:24;11.40;;;3.90;;
72198;SDS011;60103;51.014;16.992;2022-10-29T06:01:59;11.80;;;3.60;;
72198;SDS011;60103;51.014;16.992;2022-10-29T06:04:26;12.70;;;4.60;;
72198;SDS011;60103;51.014;16.992;2022-10-29T06:06:53;12.70;;;4.00;;
72198;SDS011;60103;51.014;16.992;2022-10-29T06:09:21;16.80;;;3.60;;
72198;SDS011;60103;51.014;16.992;2022-10-29T06:11:48;19.20;;;4.30;;
72198;SDS011;60103;51.014;16.992;2022-10-29T06:14:15;10.30;;;3.60;;
72198;SDS011;60103;51.014;16.992;2022-10-29T06:16:42;12.10;;;3.70;;
72198;SDS011;60103;51.014;16.992;2022-10-29T06:19:10;15.40;;;4.50;;
72198;SDS011;60103;51.014;16.992;2022-10-29T06:21:37;14.50;;;4.80;;
72198;SDS011;60103;51.014;16.992;2022-10-29T06:24:04;11.90;;;4.00;;
72198;SDS011;60103;51.014;16.992;2022-10-29T06:26:32;12.00;;;3.90;;
72198;SDS011;60103;51.014;16.992;2022-10-29T06:29:03;11.30;;;3.80;;
72198;SDS011;60103;51.014;16.992;2022-10-29T06:31:30;12.80;;;3.80;;
72198;SDS011;60103;51.014;16.992;2022-10-29T06:33:57;11.50;;;4.10;;
72198;SDS011;60103;51.014;16.992;2022-10-29T06:36:24;11.70;;;4.10;;
72198;SDS011;60103;51.014;16.992;2022-10-29T06:38:52;13.90;;;3.90;;
72198;SDS011;60103;51.014;16.992;2022-10-29T06:41:19;12.70;;;4.60;;
72198;SDS011;60103;51.014;16.992;2022-10-29T06:43:51;13.20;;;4.30;;
72198;SDS011;60103;51.014;16.992;2022-10-29T06:46:19;12.30;;;4.30;;
72198;SDS011;60103;51.014;16.992;2022-10-29T06:48:46;12.30;;;4.20;;
72198;SDS011;60103;51.014;16.992;2022-10-29T06:51:14;11.80;;;4.30;;
72198;SDS011;60103;51.014;16.992;2022-10-29T06:53:42;11.30;;;4.10;;
72198;SDS011;60103;51.014;16.992;2022-10-29T06:56:09;13.50;;;3.80;;
72198;SDS011;60103;51.014;16.992;2022-10-29T06:58:36;11.70;;;3.90;;
72198;SDS011;60103;51.014;16.992;2022-10-29T07:01:03;10.70;;;3.60;;
72198;SDS011;60103;51.014;16.992;2022-10-29T07:03:34;13.80;;;4.30;;
72198;SDS011;60103;51.014;16.992;2022-10-29T07:06:01;11.40;;;4.10;;
72198;SDS011;60103;51.014;16.992;2022-10-29T07:08:28;14.90;;;3.80;;
72198;SDS011;60103;51.014;16.992;2022-10-29T07:10:56;11.70;;;4.00;;
72198;SDS011;60103;51.014;16.992;2022-10-29T07:13:26;12.80;;;3.90;;
72198;SDS011;60103;51.014;16.992;2022-10-29T07:15:53;15.30;;;4.80;;
72198;SDS011;60103;51.014;16.992;2022-10-29T07:18:21;12.50;;;3.80;;
72198;SDS011;60103;51.014;16.992;2022-10-29T07:20:48;12.00;;;3.80;;
72198;SDS011;60103;51.014;16.992;2022-10-29T07:23:16;11.70;;;4.30;;
72198;SDS011;60103;51.014;16.992;2022-10-29T07:25:44;11.60;;;3.90;;
72198;SDS011;60103;51.014;16.992;2022-10-29T07:28:13;13.70;;;4.00;;
72198;SDS011;60103;51.014;16.992;2022-10-29T07:30:43;12.50;;;4.20;;
72198;SDS011;60103;51.014;16.992;2022-10-29T07:33:14;9.90;;;3.40;;
72198;SDS011;60103;51.014;16.992;2022-10-29T07:35:42;10.90;;;3.60;;
72198;SDS011;60103;51.014;16.992;2022-10-29T07:38:11;9.90;;;3.60;;
72198;SDS011;60103;51.014;16.992;2022-10-29T07:40:39;11.30;;;3.90;;
72198;SDS011;60103;51.014;16.992;2022-10-29T07:43:13;9.10;;;3.50;;
72198;SDS011;60103;51.014;16.992;2022-10-29T07:45:44;12.10;;;4.10;;
72198;SDS011;60103;51.014;16.992;2022-10-29T07:48:15;12.30;;;4.30;;
72198;SDS011;60103;51.014;16.992;2022-10-29T07:50:44;13.10;;;3.90;;
72198;SDS011;60103;51.014;16.992;2022-10-29T07:53:11;9.90;;;3.60;;
72198;SDS011;60103;51.014;16.992;2022-10-29T07:55:39;10.10;;;3.10;;
72198;SDS011;60103;51.014;16.992;2022-10-29T07:58:09;11.60;;;3.40;;
72198;SDS011;60103;51.014;16.992;2022-10-29T08:00:38;9.80;;;3.10;;
72198;SDS011;60103;51.014;16.992;2022-10-29T08:03:09;13.40;;;4.20;;
72198;SDS011;60103;51.014;16.992;2022-10-29T08:05:38;11.10;;;4.00;;
72198;SDS011;60103;51.014;16.992;2022-10-29T08:08:08;10.30;;;3.30;;
72198;SDS011;60103;51.014;16.992;2022-10-29T08:10:36;9.00;;;3.40;;
72198;SDS011;60103;51.014;16.992;2022-10-29T08:13:04;13.50;;;3.70;;
72198;SDS011;60103;51.014;16.992;2022-10-29T08:15:33;14.50;;;4.30;;
72198;SDS011;60103;51.014;16.992;2022-10-29T08:18:01;10.30;;;3.80;;
72198;SDS011;60103;51.014;16.992;2022-10-29T08:20:30;12.50;;;3.90;;
72198;SDS011;60103;51.014;16.992;2022-10-29T08:22:58;12.30;;;4.30;;
72198;SDS011;60103;51.014;16.992;2022-10-29T08:25:27;11.70;;;3.20;;
72198;SDS011;60103;51.014;16.992;2022-10-29T08:27:59;12.60;;;3.40;;
72198;SDS011;60103;51.014;16.992;2022-10-29T08:30:28;9.60;;;3.40;;
72198;SDS011;60103;51.014;16.992;2022-10-29T08:32:56;10.20;;;3.30;;
72198;SDS011;60103;51.014;16.992;2022-10-29T08:35:25;11.50;;;3.60;;
72198;SDS011;60103;51.014;16.992;2022-10-29T08:37:53;12.50;;;3.60;;
72198;SDS011;60103;51.014;16.992;2022-10-29T08:40:28;12.80;;;3.40;;
72198;SDS011;60103;51.014;16.992;2022-10-29T08:46:01;11.20;;;3.80;;
72198;SDS011;60103;51.014;16.992;2022-10-29T08:48:33;12.60;;;4.10;;
72198;SDS011;60103;51.014;16.992;2022-10-29T08:53:51;16.00;;;3.20;;
72198;SDS011;60103;51.014;16.992;2022-10-29T08:56:45;11.80;;;4.50;;
72198;SDS011;60103;51.014;16.992;2022-10-29T08:59:19;12.60;;;3.70;;
72198;SDS011;60103;51.014;16.992;2022-10-29T09:01:48;9.30;;;3.30;;
72198;SDS011;60103;51.014;16.992;2022-10-29T09:04:28;11.50;;;4.00;;
72198;SDS011;60103;51.014;16.992;2022-10-29T09:16:23;11.20;;;2.70;;
72198;SDS011;60103;51.014;16.992;2022-10-29T09:27:14;11.00;;;3.70;;
72198;SDS011;60103;51.014;16.992;2022-10-29T09:32:54;16.70;;;4.00;;
72198;SDS011;60103;51.014;16.992;2022-10-29T09:35:39;15.00;;;4.00;;
72198;SDS011;60103;51.014;16.992;2022-10-29T09:38:14;17.00;;;4.00;;
72198;SDS011;60103;51.014;16.992;2022-10-29T09:40:44;13.10;;;3.70;;
72198;SDS011;60103;51.014;16.992;2022-10-29T09:48:46;10.50;;;2.60;;
72198;SDS011;60103;51.014;16.992;2022-10-29T09:54:19;12.70;;;3.60;;
72198;SDS011;60103;51.014;16.992;2022-10-29T09:56:47;10.20;;;2.90;;
72198;SDS011;60103;51.014;16.992;2022-10-29T09:59:32;8.80;;;3.10;;
72198;SDS011;60103;51.014;16.992;2022-10-29T10:02:10;11.00;;;3.80;;
72198;SDS011;60103;51.014;16.992;2022-10-29T10:04:57;8.60;;;2.90;;
72198;SDS011;60103;51.014;16.992;2022-10-29T10:07:31;10.30;;;3.30;;
72198;SDS011;60103;51.014;16.992;2022-10-29T10:09:59;9.90;;;3.20;;
72198;SDS011;60103;51.014;16.992;2022-10-29T10:12:28;11.40;;;2.80;;
72198;SDS011;60103;51.014;16.992;2022-10-29T10:15:18;11.60;;;3.20;;
72198;SDS011;60103;51.014;16.992;2022-10-29T10:18:04;10.90;;;3.00;;
72198;SDS011;60103;51.014;16.992;2022-10-29T10:20:39;9.30;;;3.30;;
72198;SDS011;60103;51.014;16.992;2022-10-29T10:25:55;8.50;;;3.10;;
72198;SDS011;60103;51.014;16.992;2022-10-29T10:28:30;10.30;;;3.10;;
72198;SDS011;60103;51.014;16.992;2022-10-29T10:33:32;11.50;;;3.20;;
72198;SDS011;60103;51.014;16.992;2022-10-29T10:36:01;10.60;;;3.10;;
72198;SDS011;60103;51.014;16.992;2022-10-29T10:38:44;11.30;;;3.20;;
72198;SDS011;60103;51.014;16.992;2022-10-29T10:41:14;14.60;;;3.30;;
72198;SDS011;60103;51.014;16.992;2022-10-29T10:43:43;11.80;;;3.20;;
72198;SDS011;60103;51.014;16.992;2022-10-29T10:46:24;11.10;;;3.50;;
72198;SDS011;60103;51.014;16.992;2022-10-29T10:48:58;9.40;;;3.50;;
72198;SDS011;60103;51.014;16.992;2022-10-29T10:51:31;10.40;;;2.90;;
72198;SDS011;60103;51.014;16.992;2022-10-29T10:54:03;12.30;;;3.20;;
72198;SDS011;60103;51.014;16.992;2022-10-29T10:56:51;9.20;;;3.20;;
72198;SDS011;60103;51.014;16.992;2022-10-29T10:59:24;12.60;;;4.30;;
72198;SDS011;60103;51.014;16.992;2022-10-29T11:01:55;11.10;;;3.40;;
72198;SDS011;60103;51.014;16.992;2022-10-29T11:04:27;9.10;;;3.00;;
72198;SDS011;60103;51.014;16.992;2022-10-29T11:06:58;10.70;;;3.60;;
72198;SDS011;60103;51.014;16.992;2022-10-29T11:11:57;10.30;;;4.00;;
72198;SDS011;60103;51.014;16.992;2022-10-29T11:14:46;10.90;;;3.80;;
72198;SDS011;60103;51.014;16.992;2022-10-29T11:17:39;10.40;;;3.30;;
72198;SDS011;60103;51.014;16.992;2022-10-29T11:20:26;9.00;;;3.50;;
72198;SDS011;60103;51.014;16.992;2022-10-29T11:23:10;13.20;;;3.20;;
72198;SDS011;60103;51.014;16.992;2022-10-29T11:25:42;10.60;;;3.70;;
72198;SDS011;60103;51.014;16.992;2022-10-29T11:30:51;9.30;;;3.30;;
72198;SDS011;60103;51.014;16.992;2022-10-29T11:33:25;10.80;;;4.00;;
72198;SDS011;60103;51.014;16.992;2022-10-29T11:36:04;11.20;;;3.00;;
72198;SDS011;60103;51.014;16.992;2022-10-29T11:38:52;13.00;;;3.90;;
72198;SDS011;60103;51.014;16.992;2022-10-29T11:41:31;9.90;;;3.40;;
72198;SDS011;60103;51.014;16.992;2022-10-29T11:44:07;11.30;;;3.50;;
72198;SDS011;60103;51.014;16.992;2022-10-29T11:50:00;11.50;;;3.60;;
72198;SDS011;60103;51.014;16.992;2022-10-29T11:52:44;9.30;;;4.20;;
72198;SDS011;60103;51.014;16.992;2022-10-29T12:06:58;11.10;;;4.00;;
72198;SDS011;60103;51.014;16.992;2022-10-29T12:12:35;12.00;;;3.50;;
72198;SDS011;60103;51.014;16.992;2022-10-29T12:20:36;12.00;;;3.90;;
72198;SDS011;60103;51.014;16.992;2022-10-29T12:23:21;11.60;;;3.80;;
72198;SDS011;60103;51.014;16.992;2022-10-29T12:26:10;11.50;;;3.10;;
72198;SDS011;60103;51.014;16.992;2022-10-29T12:31:18;11.80;;;4.20;;
72198;SDS011;60103;51.014;16.992;2022-10-29T12:33:53;14.30;;;3.80;;
72198;SDS011;60103;51.014;16.992;2022-10-29T12:36:27;12.00;;;3.50;;
72198;SDS011;60103;51.014;16.992;2022-10-29T12:39:01;10.70;;;3.60;;
72198;SDS011;60103;51.014;16.992;2022-10-29T12:41:30;9.70;;;4.00;;
72198;SDS011;60103;51.014;16.992;2022-10-29T12:44:16;10.80;;;4.10;;
72198;SDS011;60103;51.014;16.992;2022-10-29T12:46:54;11.70;;;3.80;;
72198;SDS011;60103;51.014;16.992;2022-10-29T12:50:03;11.70;;;3.90;;
72198;SDS011;60103;51.014;16.992;2022-10-29T12:52:46;13.30;;;3.80;;
72198;SDS011;60103;51.014;16.992;2022-10-29T12:55:21;11.80;;;4.30;;
72198;SDS011;60103;51.014;16.992;2022-10-29T12:57:49;13.00;;;4.50;;
72198;SDS011;60103;51.014;16.992;2022-10-29T13:01:03;11.40;;;4.20;;
72198;SDS011;60103;51.014;16.992;2022-10-29T13:03:59;14.20;;;4.50;;
72198;SDS011;60103;51.014;16.992;2022-10-29T13:11:47;12.30;;;4.40;;
72198;SDS011;60103;51.014;16.992;2022-10-29T13:14:19;12.10;;;4.40;;
72198;SDS011;60103;51.014;16.992;2022-10-29T13:17:17;11.90;;;4.10;;
72198;SDS011;60103;51.014;16.992;2022-10-29T13:20:03;10.80;;;4.60;;
72198;SDS011;60103;51.014;16.992;2022-10-29T13:25:26;13.50;;;5.10;;
72198;SDS011;60103;51.014;16.992;2022-10-29T13:28:00;12.30;;;4.70;;
72198;SDS011;60103;51.014;16.992;2022-10-29T13:30:52;11.80;;;3.90;;
72198;SDS011;60103;51.014;16.992;2022-10-29T13:38:45;14.20;;;4.10;;
72198;SDS011;60103;51.014;16.992;2022-10-29T13:41:37;12.70;;;4.50;;
72198;SDS011;60103;51.014;16.992;2022-10-29T13:44:25;10.90;;;4.20;;
72198;SDS011;60103;51.014;16.992;2022-10-29T13:47:03;13.20;;;4.00;;
72198;SDS011;60103;51.014;16.992;2022-10-29T13:49:44;14.10;;;4.50;;
72198;SDS011;60103;51.014;16.992;2022-10-29T13:52:16;14.30;;;4.30;;
72198;SDS011;60103;51.014;16.992;2022-10-29T13:57:26;15.90;;;4.40;;
72198;SDS011;60103;51.014;16.992;2022-10-29T14:10:20;13.30;;;4.80;;
72198;SDS011;60103;51.014;16.992;2022-10-29T14:12:53;13.20;;;4.70;;
72198;SDS011;60103;51.014;16.992;2022-10-29T14:15:25;12.70;;;4.60;;
72198;SDS011;60103;51.014;16.992;2022-10-29T14:17:52;13.10;;;4.30;;
72198;SDS011;60103;51.014;16.992;2022-10-29T14:20:21;13.70;;;4.70;;
72198;SDS011;60103;51.014;16.992;2022-10-29T14:22:51;10.70;;;4.70;;
72198;SDS011;60103;51.014;16.992;2022-10-29T14:25:26;11.90;;;4.60;;
72198;SDS011;60103;51.014;16.992;2022-10-29T14:30:36;17.20;;;5.70;;
72198;SDS011;60103;51.014;16.992;2022-10-29T14:33:21;12.40;;;5.00;;
72198;SDS011;60103;51.014;16.992;2022-10-29T14:35:48;13.60;;;5.40;;
72198;SDS011;60103;51.014;16.992;2022-10-29T14:38:16;13.20;;;4.80;;
72198;SDS011;60103;51.014;16.992;2022-10-29T14:40:43;12.80;;;4.50;;
72198;SDS011;60103;51.014;16.992;2022-10-29T14:43:21;13.80;;;4.90;;
72198;SDS011;60103;51.014;16.992;2022-10-29T14:45:50;12.20;;;4.80;;
72198;SDS011;60103;51.014;16.992;2022-10-29T14:48:18;15.80;;;4.80;;
72198;SDS011;60103;51.014;16.992;2022-10-29T14:50:49;11.80;;;4.10;;
72198;SDS011;60103;51.014;16.992;2022-10-29T14:55:50;13.60;;;4.70;;
72198;SDS011;60103;51.014;16.992;2022-10-29T14:58:19;12.70;;;5.10;;
72198;SDS011;60103;51.014;16.992;2022-10-29T15:01:02;15.60;;;5.00;;
72198;SDS011;60103;51.014;16.992;2022-10-29T15:03:32;14.80;;;5.30;;
72198;SDS011;60103;51.014;16.992;2022-10-29T15:06:14;12.80;;;5.30;;
72198;SDS011;60103;51.014;16.992;2022-10-29T15:08:59;13.30;;;5.40;;
72198;SDS011;60103;51.014;16.992;2022-10-29T15:11:33;11.90;;;5.40;;
72198;SDS011;60103;51.014;16.992;2022-10-29T15:14:03;14.80;;;4.90;;
72198;SDS011;60103;51.014;16.992;2022-10-29T15:16:49;14.30;;;4.80;;
72198;SDS011;60103;51.014;16.992;2022-10-29T15:19:17;13.10;;;5.10;;
72198;SDS011;60103;51.014;16.992;2022-10-29T15:21:45;15.70;;;5.20;;
72198;SDS011;60103;51.014;16.992;2022-10-29T15:24:16;15.30;;;4.90;;
72198;SDS011;60103;51.014;16.992;2022-10-29T15:26:50;14.20;;;5.10;;
72198;SDS011;60103;51.014;16.992;2022-10-29T15:29:24;14.70;;;5.30;;
72198;SDS011;60103;51.014;16.992;2022-10-29T15:32:00;14.50;;;5.30;;
72198;SDS011;60103;51.014;16.992;2022-10-29T15:34:30;13.50;;;5.90;;
72198;SDS011;60103;51.014;16.992;2022-10-29T15:37:12;16.10;;;5.30;;
72198;SDS011;60103;51.014;16.992;2022-10-29T15:42:29;13.10;;;4.50;;
72198;SDS011;60103;51.014;16.992;2022-10-29T15:47:35;13.20;;;5.90;;
72198;SDS011;60103;51.014;16.992;2022-10-29T15:50:11;18.00;;;5.10;;
72198;SDS011;60103;51.014;16.992;2022-10-29T15:52:52;16.40;;;5.40;;
72198;SDS011;60103;51.014;16.992;2022-10-29T15:55:27;12.60;;;5.20;;
72198;SDS011;60103;51.014;16.992;2022-10-29T15:58:15;15.90;;;5.60;;
72198;SDS011;60103;51.014;16.992;2022-10-29T16:00:43;15.90;;;6.60;;
72198;SDS011;60103;51.014;16.992;2022-10-29T16:03:12;12.00;;;5.90;;
72198;SDS011;60103;51.014;16.992;2022-10-29T16:05:45;17.90;;;6.70;;
72198;SDS011;60103;51.014;16.992;2022-10-29T16:08:25;18.70;;;7.00;;
72198;SDS011;60103;51.014;16.992;2022-10-29T16:10:55;16.40;;;6.30;;
72198;SDS011;60103;51.014;16.992;2022-10-29T16:13:23;18.00;;;6.40;;
72198;SDS011;60103;51.014;16.992;2022-10-29T16:15:52;17.20;;;6.60;;
72198;SDS011;60103;51.014;16.992;2022-10-29T16:18:19;19.00;;;6.40;;
72198;SDS011;60103;51.014;16.992;2022-10-29T16:20:47;19.40;;;6.70;;
72198;SDS011;60103;51.014;16.992;2022-10-29T16:23:14;23.80;;;8.40;;
72198;SDS011;60103;51.014;16.992;2022-10-29T16:25:42;25.40;;;8.90;;
72198;SDS011;60103;51.014;16.992;2022-10-29T16:28:09;29.20;;;9.80;;
72198;SDS011;60103;51.014;16.992;2022-10-29T16:30:37;24.30;;;9.80;;
72198;SDS011;60103;51.014;16.992;2022-10-29T16:33:07;23.00;;;8.80;;
72198;SDS011;60103;51.014;16.992;2022-10-29T16:35:36;27.00;;;10.10;;
72198;SDS011;60103;51.014;16.992;2022-10-29T16:38:03;27.50;;;10.80;;
72198;SDS011;60103;51.014;16.992;2022-10-29T16:40:31;21.20;;;9.90;;
72198;SDS011;60103;51.014;16.992;2022-10-29T16:42:59;21.20;;;9.60;;
72198;SDS011;60103;51.014;16.992;2022-10-29T16:45:27;25.30;;;11.10;;
72198;SDS011;60103;51.014;16.992;2022-10-29T16:47:56;24.90;;;10.40;;
72198;SDS011;60103;51.014;16.992;2022-10-29T16:50:26;24.50;;;10.90;;
72198;SDS011;60103;51.014;16.992;2022-10-29T16:53:04;27.30;;;11.20;;
72198;SDS011;60103;51.014;16.992;2022-10-29T16:55:39;24.60;;;9.50;;
72198;SDS011;60103;51.014;16.992;2022-10-29T16:58:08;25.20;;;10.10;;
72198;SDS011;60103;51.014;16.992;2022-10-29T17:00:38;22.10;;;10.00;;
72198;SDS011;60103;51.014;16.992;2022-10-29T17:03:06;23.30;;;9.80;;
72198;SDS011;60103;51.014;16.992;2022-10-29T17:05:38;20.80;;;9.60;;
72198;SDS011;60103;51.014;16.992;2022-10-29T17:08:07;23.50;;;9.00;;
72198;SDS011;60103;51.014;16.992;2022-10-29T17:10:34;24.40;;;9.50;;